sensor_id;sensor_type;location;lat;lon;timestamp;P1;durP1;ratioP1;P2;durP2;ratioP2
20802;SDS011;10562;-33.856;151.182;2024-03-02T00:00:03;34.20;;;6.57;;
20802;SDS011;10562;-33.856;151.182;2024-03-02T00:02:41;36.85;;;7.35;;
20802;SDS011;10562;-33.856;151.182;2024-03-02T00:05:12;32.65;;;6.97;;
20802;SDS011;10562;-33.856;151.182;2024-03-02T00:07:44;35.13;;;6.43;;
20802;SDS011;10562;-33.856;151.182;2024-03-02T00:10:16;30.70;;;6.45;;
20802;SDS011;10562;-33.856;151.182;2024-03-02T00:12:54;30.65;;;6.40;;
20802;SDS011;10562;-33.856;151.182;2024-03-02T00:18:18;60.88;;;36.42;;
20802;SDS011;10562;-33.856;151.182;2024-03-02T00:20:49;51.25;;;38.47;;
20802;SDS011;10562;-33.856;151.182;2024-03-02T00:23:24;51.55;;;25.13;;
20802;SDS011;10562;-33.856;151.182;2024-03-02T00:25:58;33.95;;;20.55;;
20802;SDS011;10562;-33.856;151.182;2024-03-02T00:28:30;46.20;;;23.13;;
20802;SDS011;10562;-33.856;151.182;2024-03-02T00:31:02;31.95;;;14.52;;
20802;SDS011;10562;-33.856;151.182;2024-03-02T00:33:36;27.90;;;10.80;;
20802;SDS011;10562;-33.856;151.182;2024-03-02T00:36:09;33.15;;;9.23;;
20802;SDS011;10562;-33.856;151.182;2024-03-02T00:38:44;31.13;;;8.63;;
20802;SDS011;10562;-33.856;151.182;2024-03-02T00:41:19;39.08;;;8.82;;
20802;SDS011;10562;-33.856;151.182;2024-03-02T00:43:58;37.70;;;9.27;;
20802;SDS011;10562;-33.856;151.182;2024-03-02T00:46:29;33.20;;;7.68;;
20802;SDS011;10562;-33.856;151.182;2024-03-02T00:49:05;33.92;;;7.10;;
20802;SDS011;10562;-33.856;151.182;2024-03-02T00:51:53;29.73;;;7.28;;
20802;SDS011;10562;-33.856;151.182;2024-03-02T00:54:24;33.22;;;7.65;;
20802;SDS011;10562;-33.856;151.182;2024-03-02T00:56:56;30.23;;;7.22;;
20802;SDS011;10562;-33.856;151.182;2024-03-02T00:59:27;29.65;;;7.10;;
20802;SDS011;10562;-33.856;151.182;2024-03-02T01:01:58;28.35;;;7.55;;
20802;SDS011;10562;-33.856;151.182;2024-03-02T01:04:32;27.30;;;7.75;;
20802;SDS011;10562;-33.856;151.182;2024-03-02T01:07:03;36.88;;;10.27;;
20802;SDS011;10562;-33.856;151.182;2024-03-02T01:09:34;28.90;;;7.88;;
20802;SDS011;10562;-33.856;151.182;2024-03-02T01:12:05;27.73;;;6.50;;
20802;SDS011;10562;-33.856;151.182;2024-03-02T01:14:36;30.88;;;5.78;;
20802;SDS011;10562;-33.856;151.182;2024-03-02T01:17:07;30.67;;;5.60;;
20802;SDS011;10562;-33.856;151.182;2024-03-02T01:19:40;23.45;;;4.95;;
20802;SDS011;10562;-33.856;151.182;2024-03-02T01:22:12;25.05;;;5.63;;
20802;SDS011;10562;-33.856;151.182;2024-03-02T01:24:42;23.25;;;5.55;;
20802;SDS011;10562;-33.856;151.182;2024-03-02T01:27:16;26.50;;;5.18;;
20802;SDS011;10562;-33.856;151.182;2024-03-02T01:29:47;26.35;;;5.57;;
20802;SDS011;10562;-33.856;151.182;2024-03-02T01:32:18;23.25;;;5.65;;
20802;SDS011;10562;-33.856;151.182;2024-03-02T01:34:50;24.23;;;5.45;;
20802;SDS011;10562;-33.856;151.182;2024-03-02T01:37:21;29.48;;;5.78;;
20802;SDS011;10562;-33.856;151.182;2024-03-02T01:39:52;22.95;;;5.82;;
20802;SDS011;10562;-33.856;151.182;2024-03-02T01:42:23;29.00;;;7.10;;
20802;SDS011;10562;-33.856;151.182;2024-03-02T01:44:53;30.00;;;7.43;;
20802;SDS011;10562;-33.856;151.182;2024-03-02T01:47:24;35.28;;;5.82;;
20802;SDS011;10562;-33.856;151.182;2024-03-02T01:49:57;29.85;;;6.88;;
20802;SDS011;10562;-33.856;151.182;2024-03-02T01:52:28;31.42;;;6.30;;
20802;SDS011;10562;-33.856;151.182;2024-03-02T01:55:01;28.90;;;6.32;;
20802;SDS011;10562;-33.856;151.182;2024-03-02T01:57:33;32.72;;;7.18;;
20802;SDS011;10562;-33.856;151.182;2024-03-02T02:00:05;30.30;;;6.95;;
20802;SDS011;10562;-33.856;151.182;2024-03-02T02:02:36;26.77;;;8.32;;
20802;SDS011;10562;-33.856;151.182;2024-03-02T02:05:09;29.00;;;7.60;;
20802;SDS011;10562;-33.856;151.182;2024-03-02T02:07:40;27.55;;;7.65;;
20802;SDS011;10562;-33.856;151.182;2024-03-02T02:10:11;30.63;;;9.55;;
20802;SDS011;10562;-33.856;151.182;2024-03-02T02:12:42;32.10;;;8.07;;
20802;SDS011;10562;-33.856;151.182;2024-03-02T02:15:23;26.13;;;5.80;;
20802;SDS011;10562;-33.856;151.182;2024-03-02T02:17:54;27.73;;;5.63;;
20802;SDS011;10562;-33.856;151.182;2024-03-02T02:20:28;24.02;;;5.55;;
20802;SDS011;10562;-33.856;151.182;2024-03-02T02:23:01;26.30;;;4.88;;
20802;SDS011;10562;-33.856;151.182;2024-03-02T02:25:34;23.80;;;5.40;;
20802;SDS011;10562;-33.856;151.182;2024-03-02T02:28:05;23.85;;;5.32;;
20802;SDS011;10562;-33.856;151.182;2024-03-02T02:30:36;21.98;;;5.50;;
20802;SDS011;10562;-33.856;151.182;2024-03-02T02:33:07;23.45;;;6.07;;
20802;SDS011;10562;-33.856;151.182;2024-03-02T02:35:37;18.00;;;5.35;;
20802;SDS011;10562;-33.856;151.182;2024-03-02T02:38:11;22.23;;;5.90;;
20802;SDS011;10562;-33.856;151.182;2024-03-02T02:40:42;27.48;;;6.10;;
20802;SDS011;10562;-33.856;151.182;2024-03-02T02:43:13;21.70;;;6.32;;
20802;SDS011;10562;-33.856;151.182;2024-03-02T02:45:44;24.15;;;7.05;;
20802;SDS011;10562;-33.856;151.182;2024-03-02T02:48:16;23.25;;;7.25;;
20802;SDS011;10562;-33.856;151.182;2024-03-02T02:50:46;28.00;;;9.50;;
20802;SDS011;10562;-33.856;151.182;2024-03-02T02:53:19;33.28;;;12.02;;
20802;SDS011;10562;-33.856;151.182;2024-03-02T02:55:50;30.02;;;10.85;;
20802;SDS011;10562;-33.856;151.182;2024-03-02T02:58:20;30.45;;;13.05;;
20802;SDS011;10562;-33.856;151.182;2024-03-02T03:00:51;28.52;;;13.38;;
20802;SDS011;10562;-33.856;151.182;2024-03-02T03:03:22;29.00;;;13.13;;
20802;SDS011;10562;-33.856;151.182;2024-03-02T03:05:53;30.48;;;11.18;;
20802;SDS011;10562;-33.856;151.182;2024-03-02T03:08:26;32.30;;;11.57;;
20802;SDS011;10562;-33.856;151.182;2024-03-02T03:10:57;28.67;;;11.25;;
20802;SDS011;10562;-33.856;151.182;2024-03-02T03:13:28;28.08;;;11.63;;
20802;SDS011;10562;-33.856;151.182;2024-03-02T03:15:58;27.58;;;11.23;;
20802;SDS011;10562;-33.856;151.182;2024-03-02T03:18:29;23.40;;;9.50;;
20802;SDS011;10562;-33.856;151.182;2024-03-02T03:21:00;28.63;;;10.80;;
20802;SDS011;10562;-33.856;151.182;2024-03-02T03:23:33;28.30;;;11.63;;
20802;SDS011;10562;-33.856;151.182;2024-03-02T03:26:05;25.35;;;12.95;;
20802;SDS011;10562;-33.856;151.182;2024-03-02T03:28:38;33.28;;;13.95;;
20802;SDS011;10562;-33.856;151.182;2024-03-02T03:31:09;33.08;;;15.52;;
20802;SDS011;10562;-33.856;151.182;2024-03-02T03:33:39;24.58;;;12.70;;
20802;SDS011;10562;-33.856;151.182;2024-03-02T03:36:10;25.73;;;12.85;;
20802;SDS011;10562;-33.856;151.182;2024-03-02T03:38:43;29.02;;;13.82;;
20802;SDS011;10562;-33.856;151.182;2024-03-02T03:41:14;27.70;;;15.35;;
20802;SDS011;10562;-33.856;151.182;2024-03-02T03:43:44;30.23;;;14.93;;
20802;SDS011;10562;-33.856;151.182;2024-03-02T03:46:15;27.23;;;14.43;;
20802;SDS011;10562;-33.856;151.182;2024-03-02T03:48:46;27.95;;;16.08;;
20802;SDS011;10562;-33.856;151.182;2024-03-02T03:51:17;22.35;;;13.07;;
20802;SDS011;10562;-33.856;151.182;2024-03-02T03:53:51;27.50;;;15.50;;
20802;SDS011;10562;-33.856;151.182;2024-03-02T03:56:22;30.33;;;16.13;;
20802;SDS011;10562;-33.856;151.182;2024-03-02T03:58:52;26.08;;;13.80;;
20802;SDS011;10562;-33.856;151.182;2024-03-02T04:01:23;30.42;;;16.00;;
20802;SDS011;10562;-33.856;151.182;2024-03-02T04:03:54;27.88;;;13.55;;
20802;SDS011;10562;-33.856;151.182;2024-03-02T04:06:25;29.65;;;16.23;;
20802;SDS011;10562;-33.856;151.182;2024-03-02T04:08:57;33.25;;;15.07;;
20802;SDS011;10562;-33.856;151.182;2024-03-02T04:11:28;28.83;;;14.02;;
20802;SDS011;10562;-33.856;151.182;2024-03-02T04:13:59;28.85;;;15.00;;
20802;SDS011;10562;-33.856;151.182;2024-03-02T04:16:29;29.23;;;15.77;;
20802;SDS011;10562;-33.856;151.182;2024-03-02T04:19:00;29.73;;;12.80;;
20802;SDS011;10562;-33.856;151.182;2024-03-02T04:21:31;26.05;;;11.18;;
20802;SDS011;10562;-33.856;151.182;2024-03-02T04:24:04;27.45;;;11.88;;
20802;SDS011;10562;-33.856;151.182;2024-03-02T04:26:35;31.17;;;14.52;;
20802;SDS011;10562;-33.856;151.182;2024-03-02T04:29:06;29.42;;;13.98;;
20802;SDS011;10562;-33.856;151.182;2024-03-02T04:31:36;23.85;;;13.43;;
20802;SDS011;10562;-33.856;151.182;2024-03-02T04:34:07;27.33;;;11.82;;
20802;SDS011;10562;-33.856;151.182;2024-03-02T04:36:41;24.75;;;10.18;;
20802;SDS011;10562;-33.856;151.182;2024-03-02T04:39:13;26.85;;;9.77;;
20802;SDS011;10562;-33.856;151.182;2024-03-02T04:41:44;28.23;;;12.00;;
20802;SDS011;10562;-33.856;151.182;2024-03-02T04:44:15;25.52;;;10.45;;
20802;SDS011;10562;-33.856;151.182;2024-03-02T04:46:46;20.88;;;8.38;;
20802;SDS011;10562;-33.856;151.182;2024-03-02T04:49:16;17.13;;;8.63;;
20802;SDS011;10562;-33.856;151.182;2024-03-02T04:51:48;21.88;;;10.32;;
20802;SDS011;10562;-33.856;151.182;2024-03-02T04:54:21;23.83;;;9.80;;
20802;SDS011;10562;-33.856;151.182;2024-03-02T04:56:52;21.52;;;7.70;;
20802;SDS011;10562;-33.856;151.182;2024-03-02T04:59:23;27.15;;;7.43;;
20802;SDS011;10562;-33.856;151.182;2024-03-02T05:01:53;25.05;;;7.43;;
20802;SDS011;10562;-33.856;151.182;2024-03-02T05:04:24;24.70;;;6.97;;
20802;SDS011;10562;-33.856;151.182;2024-03-02T05:06:55;22.95;;;7.35;;
20802;SDS011;10562;-33.856;151.182;2024-03-02T05:09:28;23.00;;;6.60;;
20802;SDS011;10562;-33.856;151.182;2024-03-02T05:11:58;26.23;;;6.97;;
20802;SDS011;10562;-33.856;151.182;2024-03-02T05:15:01;17.65;;;5.70;;
20802;SDS011;10562;-33.856;151.182;2024-03-02T05:17:32;23.23;;;6.60;;
20802;SDS011;10562;-33.856;151.182;2024-03-02T05:20:03;25.80;;;6.20;;
20802;SDS011;10562;-33.856;151.182;2024-03-02T05:22:35;26.42;;;6.30;;
20802;SDS011;10562;-33.856;151.182;2024-03-02T05:25:08;22.17;;;6.40;;
20802;SDS011;10562;-33.856;151.182;2024-03-02T05:27:39;26.95;;;6.85;;
20802;SDS011;10562;-33.856;151.182;2024-03-02T05:30:10;26.13;;;6.80;;
20802;SDS011;10562;-33.856;151.182;2024-03-02T05:32:41;23.63;;;7.28;;
20802;SDS011;10562;-33.856;151.182;2024-03-02T05:35:12;24.80;;;7.30;;
20802;SDS011;10562;-33.856;151.182;2024-03-02T05:37:42;19.30;;;6.57;;
20802;SDS011;10562;-33.856;151.182;2024-03-02T05:40:15;24.02;;;6.82;;
20802;SDS011;10562;-33.856;151.182;2024-03-02T05:42:46;24.15;;;7.32;;
20802;SDS011;10562;-33.856;151.182;2024-03-02T05:45:17;22.08;;;7.13;;
20802;SDS011;10562;-33.856;151.182;2024-03-02T05:47:47;26.48;;;7.43;;
20802;SDS011;10562;-33.856;151.182;2024-03-02T05:50:18;18.73;;;7.13;;
20802;SDS011;10562;-33.856;151.182;2024-03-02T05:52:49;21.42;;;6.88;;
20802;SDS011;10562;-33.856;151.182;2024-03-02T05:55:22;26.95;;;7.35;;
20802;SDS011;10562;-33.856;151.182;2024-03-02T05:57:52;24.02;;;7.05;;
20802;SDS011;10562;-33.856;151.182;2024-03-02T06:00:37;19.98;;;6.28;;
20802;SDS011;10562;-33.856;151.182;2024-03-02T06:03:08;24.35;;;7.18;;
20802;SDS011;10562;-33.856;151.182;2024-03-02T06:05:39;23.55;;;7.25;;
20802;SDS011;10562;-33.856;151.182;2024-03-02T06:08:12;21.85;;;7.07;;
20802;SDS011;10562;-33.856;151.182;2024-03-02T06:10:45;20.48;;;7.00;;
20802;SDS011;10562;-33.856;151.182;2024-03-02T06:13:16;21.83;;;6.97;;
20802;SDS011;10562;-33.856;151.182;2024-03-02T06:15:46;24.30;;;7.05;;
20802;SDS011;10562;-33.856;151.182;2024-03-02T06:18:17;24.50;;;6.82;;
20802;SDS011;10562;-33.856;151.182;2024-03-02T06:20:51;20.40;;;6.60;;
20802;SDS011;10562;-33.856;151.182;2024-03-02T06:23:22;16.75;;;6.20;;
20802;SDS011;10562;-33.856;151.182;2024-03-02T06:25:55;19.70;;;6.65;;
20802;SDS011;10562;-33.856;151.182;2024-03-02T06:28:25;22.98;;;7.15;;
20802;SDS011;10562;-33.856;151.182;2024-03-02T06:30:56;22.70;;;7.13;;
20802;SDS011;10562;-33.856;151.182;2024-03-02T06:33:27;27.48;;;7.95;;
20802;SDS011;10562;-33.856;151.182;2024-03-02T06:35:58;22.23;;;7.30;;
20802;SDS011;10562;-33.856;151.182;2024-03-02T06:38:29;21.90;;;8.05;;
20802;SDS011;10562;-33.856;151.182;2024-03-02T06:41:02;18.20;;;7.40;;
20802;SDS011;10562;-33.856;151.182;2024-03-02T06:43:33;21.35;;;8.98;;
20802;SDS011;10562;-33.856;151.182;2024-03-02T06:46:07;29.58;;;11.52;;
20802;SDS011;10562;-33.856;151.182;2024-03-02T06:48:41;27.20;;;11.95;;
20802;SDS011;10562;-33.856;151.182;2024-03-02T06:51:13;36.13;;;16.58;;
20802;SDS011;10562;-33.856;151.182;2024-03-02T06:53:43;36.00;;;19.95;;
20802;SDS011;10562;-33.856;151.182;2024-03-02T06:56:16;23.95;;;12.60;;
20802;SDS011;10562;-33.856;151.182;2024-03-02T06:58:47;22.05;;;11.60;;
20802;SDS011;10562;-33.856;151.182;2024-03-02T07:01:18;28.58;;;14.50;;
20802;SDS011;10562;-33.856;151.182;2024-03-02T07:03:49;22.50;;;13.75;;
20802;SDS011;10562;-33.856;151.182;2024-03-02T07:06:19;20.65;;;11.18;;
20802;SDS011;10562;-33.856;151.182;2024-03-02T07:08:50;31.08;;;16.60;;
20802;SDS011;10562;-33.856;151.182;2024-03-02T07:11:23;28.58;;;16.33;;
20802;SDS011;10562;-33.856;151.182;2024-03-02T07:13:54;25.77;;;20.35;;
20802;SDS011;10562;-33.856;151.182;2024-03-02T07:16:25;36.28;;;25.08;;
20802;SDS011;10562;-33.856;151.182;2024-03-02T07:18:59;32.67;;;26.42;;
20802;SDS011;10562;-33.856;151.182;2024-03-02T07:21:30;35.92;;;29.75;;
20802;SDS011;10562;-33.856;151.182;2024-03-02T07:24:01;36.67;;;30.63;;
20802;SDS011;10562;-33.856;151.182;2024-03-02T07:26:34;40.75;;;32.85;;
20802;SDS011;10562;-33.856;151.182;2024-03-02T07:29:05;35.70;;;28.95;;
20802;SDS011;10562;-33.856;151.182;2024-03-02T07:31:36;41.33;;;32.10;;
20802;SDS011;10562;-33.856;151.182;2024-03-02T07:34:06;28.23;;;25.27;;
20802;SDS011;10562;-33.856;151.182;2024-03-02T07:36:37;33.70;;;27.85;;
20802;SDS011;10562;-33.856;151.182;2024-03-02T07:39:08;26.52;;;21.02;;
20802;SDS011;10562;-33.856;151.182;2024-03-02T07:41:40;29.83;;;25.65;;
20802;SDS011;10562;-33.856;151.182;2024-03-02T07:44:12;28.35;;;25.10;;
20802;SDS011;10562;-33.856;151.182;2024-03-02T07:46:45;32.22;;;26.73;;
20802;SDS011;10562;-33.856;151.182;2024-03-02T07:49:17;24.38;;;18.42;;
20802;SDS011;10562;-33.856;151.182;2024-03-02T07:51:47;21.00;;;14.38;;
20802;SDS011;10562;-33.856;151.182;2024-03-02T07:54:18;26.98;;;19.92;;
20802;SDS011;10562;-33.856;151.182;2024-03-02T07:56:51;28.45;;;16.65;;
20802;SDS011;10562;-33.856;151.182;2024-03-02T07:59:21;30.05;;;20.23;;
20802;SDS011;10562;-33.856;151.182;2024-03-02T08:01:52;29.17;;;13.07;;
20802;SDS011;10562;-33.856;151.182;2024-03-02T08:04:23;27.40;;;18.45;;
20802;SDS011;10562;-33.856;151.182;2024-03-02T08:06:54;31.90;;;21.15;;
20802;SDS011;10562;-33.856;151.182;2024-03-02T08:09:25;33.80;;;18.83;;
20802;SDS011;10562;-33.856;151.182;2024-03-02T08:11:57;45.70;;;28.27;;
20802;SDS011;10562;-33.856;151.182;2024-03-02T08:14:28;36.90;;;23.05;;
20802;SDS011;10562;-33.856;151.182;2024-03-02T08:16:59;38.97;;;25.98;;
20802;SDS011;10562;-33.856;151.182;2024-03-02T08:19:35;26.38;;;16.98;;
20802;SDS011;10562;-33.856;151.182;2024-03-02T08:22:06;29.33;;;15.38;;
20802;SDS011;10562;-33.856;151.182;2024-03-02T08:24:38;31.08;;;14.30;;
20802;SDS011;10562;-33.856;151.182;2024-03-02T08:27:11;29.08;;;15.27;;
20802;SDS011;10562;-33.856;151.182;2024-03-02T08:29:42;27.80;;;18.17;;
20802;SDS011;10562;-33.856;151.182;2024-03-02T08:32:13;27.80;;;15.15;;
20802;SDS011;10562;-33.856;151.182;2024-03-02T08:34:45;24.88;;;11.50;;
20802;SDS011;10562;-33.856;151.182;2024-03-02T08:37:16;22.63;;;10.40;;
20802;SDS011;10562;-33.856;151.182;2024-03-02T08:39:47;26.58;;;10.32;;
20802;SDS011;10562;-33.856;151.182;2024-03-02T08:42:20;23.80;;;9.23;;
20802;SDS011;10562;-33.856;151.182;2024-03-02T08:44:51;25.02;;;7.32;;
20802;SDS011;10562;-33.856;151.182;2024-03-02T08:47:22;26.20;;;9.25;;
20802;SDS011;10562;-33.856;151.182;2024-03-02T08:49:52;24.10;;;7.65;;
20802;SDS011;10562;-33.856;151.182;2024-03-02T08:52:23;26.10;;;7.32;;
20802;SDS011;10562;-33.856;151.182;2024-03-02T08:54:55;21.80;;;7.95;;
20802;SDS011;10562;-33.856;151.182;2024-03-02T08:57:29;22.67;;;7.38;;
20802;SDS011;10562;-33.856;151.182;2024-03-02T08:59:59;25.90;;;7.32;;
20802;SDS011;10562;-33.856;151.182;2024-03-02T09:02:31;21.45;;;7.22;;
20802;SDS011;10562;-33.856;151.182;2024-03-02T09:05:06;19.60;;;7.07;;
20802;SDS011;10562;-33.856;151.182;2024-03-02T09:07:37;18.55;;;7.30;;
20802;SDS011;10562;-33.856;151.182;2024-03-02T09:10:08;27.23;;;9.23;;
20802;SDS011;10562;-33.856;151.182;2024-03-02T09:12:41;25.70;;;8.45;;
20802;SDS011;10562;-33.856;151.182;2024-03-02T09:15:12;23.80;;;7.03;;
20802;SDS011;10562;-33.856;151.182;2024-03-02T09:17:43;22.30;;;6.78;;
20802;SDS011;10562;-33.856;151.182;2024-03-02T09:20:14;27.27;;;7.00;;
20802;SDS011;10562;-33.856;151.182;2024-03-02T09:22:48;16.30;;;6.72;;
20802;SDS011;10562;-33.856;151.182;2024-03-02T09:25:20;23.75;;;6.55;;
20802;SDS011;10562;-33.856;151.182;2024-03-02T09:27:53;29.00;;;6.97;;
20802;SDS011;10562;-33.856;151.182;2024-03-02T09:30:24;26.42;;;6.65;;
20802;SDS011;10562;-33.856;151.182;2024-03-02T09:32:55;26.20;;;7.38;;
20802;SDS011;10562;-33.856;151.182;2024-03-02T09:35:26;23.20;;;7.57;;
20802;SDS011;10562;-33.856;151.182;2024-03-02T09:37:56;20.77;;;6.85;;
20802;SDS011;10562;-33.856;151.182;2024-03-02T09:40:27;27.25;;;8.15;;
20802;SDS011;10562;-33.856;151.182;2024-03-02T09:43:00;21.50;;;6.82;;
20802;SDS011;10562;-33.856;151.182;2024-03-02T09:45:33;26.92;;;7.18;;
20802;SDS011;10562;-33.856;151.182;2024-03-02T09:48:05;24.95;;;7.70;;
20802;SDS011;10562;-33.856;151.182;2024-03-02T09:50:36;23.40;;;6.88;;
20802;SDS011;10562;-33.856;151.182;2024-03-02T09:53:08;26.20;;;6.68;;
20802;SDS011;10562;-33.856;151.182;2024-03-02T09:55:40;15.80;;;5.85;;
20802;SDS011;10562;-33.856;151.182;2024-03-02T09:58:16;20.30;;;5.70;;
20802;SDS011;10562;-33.856;151.182;2024-03-02T10:00:47;16.90;;;5.47;;
20802;SDS011;10562;-33.856;151.182;2024-03-02T10:03:19;21.33;;;5.75;;
20802;SDS011;10562;-33.856;151.182;2024-03-02T10:05:51;20.70;;;5.32;;
20802;SDS011;10562;-33.856;151.182;2024-03-02T10:08:22;22.77;;;5.47;;
20802;SDS011;10562;-33.856;151.182;2024-03-02T10:10:53;20.27;;;5.13;;
20802;SDS011;10562;-33.856;151.182;2024-03-02T10:13:25;19.08;;;6.35;;
20802;SDS011;10562;-33.856;151.182;2024-03-02T10:15:57;22.80;;;6.20;;
20802;SDS011;10562;-33.856;151.182;2024-03-02T10:18:42;19.35;;;6.10;;
20802;SDS011;10562;-33.856;151.182;2024-03-02T10:21:13;15.15;;;5.32;;
20802;SDS011;10562;-33.856;151.182;2024-03-02T10:23:44;15.45;;;5.60;;
20802;SDS011;10562;-33.856;151.182;2024-03-02T10:26:17;14.93;;;4.50;;
20802;SDS011;10562;-33.856;151.182;2024-03-02T10:28:50;21.13;;;5.45;;
20802;SDS011;10562;-33.856;151.182;2024-03-02T10:31:25;18.20;;;5.30;;
20802;SDS011;10562;-33.856;151.182;2024-03-02T10:33:56;16.73;;;5.75;;
20802;SDS011;10562;-33.856;151.182;2024-03-02T10:36:28;25.67;;;6.32;;
20802;SDS011;10562;-33.856;151.182;2024-03-02T10:38:59;18.63;;;5.20;;
20802;SDS011;10562;-33.856;151.182;2024-03-02T10:41:32;16.92;;;5.05;;
20802;SDS011;10562;-33.856;151.182;2024-03-02T10:44:06;16.67;;;6.00;;
20802;SDS011;10562;-33.856;151.182;2024-03-02T10:46:37;19.15;;;4.78;;
20802;SDS011;10562;-33.856;151.182;2024-03-02T10:49:08;17.63;;;5.07;;
20802;SDS011;10562;-33.856;151.182;2024-03-02T10:51:39;20.40;;;4.95;;
20802;SDS011;10562;-33.856;151.182;2024-03-02T10:54:10;18.85;;;5.18;;
20802;SDS011;10562;-33.856;151.182;2024-03-02T10:56:44;19.65;;;5.95;;
20802;SDS011;10562;-33.856;151.182;2024-03-02T10:59:21;22.70;;;6.72;;
20802;SDS011;10562;-33.856;151.182;2024-03-02T11:01:57;22.10;;;5.75;;
20802;SDS011;10562;-33.856;151.182;2024-03-02T11:04:28;21.00;;;6.10;;
20802;SDS011;10562;-33.856;151.182;2024-03-02T11:07:02;16.95;;;4.72;;
20802;SDS011;10562;-33.856;151.182;2024-03-02T11:09:34;16.95;;;4.70;;
20802;SDS011;10562;-33.856;151.182;2024-03-02T11:12:09;18.15;;;5.15;;
20802;SDS011;10562;-33.856;151.182;2024-03-02T11:14:43;18.58;;;5.10;;
20802;SDS011;10562;-33.856;151.182;2024-03-02T11:17:14;18.38;;;4.93;;
20802;SDS011;10562;-33.856;151.182;2024-03-02T11:19:46;17.38;;;6.45;;
20802;SDS011;10562;-33.856;151.182;2024-03-02T11:22:18;16.77;;;6.22;;
20802;SDS011;10562;-33.856;151.182;2024-03-02T11:24:50;21.35;;;6.03;;
20802;SDS011;10562;-33.856;151.182;2024-03-02T11:33:25;22.63;;;5.57;;
20802;SDS011;10562;-33.856;151.182;2024-03-02T11:35:57;13.48;;;5.20;;
20802;SDS011;10562;-33.856;151.182;2024-03-02T11:38:32;21.05;;;5.85;;
20802;SDS011;10562;-33.856;151.182;2024-03-02T11:41:05;22.45;;;6.07;;
20802;SDS011;10562;-33.856;151.182;2024-03-02T11:43:37;19.70;;;6.88;;
20802;SDS011;10562;-33.856;151.182;2024-03-02T11:46:12;19.15;;;6.43;;
20802;SDS011;10562;-33.856;151.182;2024-03-02T11:48:43;18.08;;;6.60;;
20802;SDS011;10562;-33.856;151.182;2024-03-02T11:51:15;23.65;;;10.63;;
20802;SDS011;10562;-33.856;151.182;2024-03-02T11:53:46;25.75;;;8.98;;
20802;SDS011;10562;-33.856;151.182;2024-03-02T11:56:19;22.00;;;9.40;;
20802;SDS011;10562;-33.856;151.182;2024-03-02T11:58:50;24.08;;;9.25;;
20802;SDS011;10562;-33.856;151.182;2024-03-02T12:01:26;22.45;;;8.05;;
20802;SDS011;10562;-33.856;151.182;2024-03-02T12:03:58;20.25;;;5.57;;
20802;SDS011;10562;-33.856;151.182;2024-03-02T12:06:29;16.15;;;5.88;;
20802;SDS011;10562;-33.856;151.182;2024-03-02T12:09:00;18.83;;;5.00;;
20802;SDS011;10562;-33.856;151.182;2024-03-02T12:11:31;19.33;;;7.18;;
20802;SDS011;10562;-33.856;151.182;2024-03-02T12:14:02;18.38;;;5.00;;
20802;SDS011;10562;-33.856;151.182;2024-03-02T12:16:34;14.68;;;4.47;;
20802;SDS011;10562;-33.856;151.182;2024-03-02T12:19:06;21.20;;;4.75;;
20802;SDS011;10562;-33.856;151.182;2024-03-02T12:21:36;17.52;;;4.60;;
20802;SDS011;10562;-33.856;151.182;2024-03-02T12:24:08;18.90;;;5.20;;
20802;SDS011;10562;-33.856;151.182;2024-03-02T12:26:39;16.90;;;5.72;;
20802;SDS011;10562;-33.856;151.182;2024-03-02T12:29:10;16.70;;;4.65;;
20802;SDS011;10562;-33.856;151.182;2024-03-02T12:31:44;15.80;;;4.50;;
20802;SDS011;10562;-33.856;151.182;2024-03-02T12:34:16;19.00;;;4.47;;
20802;SDS011;10562;-33.856;151.182;2024-03-02T12:39:25;23.92;;;5.30;;
20802;SDS011;10562;-33.856;151.182;2024-03-02T12:41:56;16.30;;;4.50;;
20802;SDS011;10562;-33.856;151.182;2024-03-02T12:44:27;15.82;;;3.97;;
20802;SDS011;10562;-33.856;151.182;2024-03-02T12:47:00;13.40;;;4.38;;
20802;SDS011;10562;-33.856;151.182;2024-03-02T12:49:31;19.77;;;4.70;;
20802;SDS011;10562;-33.856;151.182;2024-03-02T12:52:04;19.13;;;4.50;;
20802;SDS011;10562;-33.856;151.182;2024-03-02T12:54:36;20.00;;;4.05;;
20802;SDS011;10562;-33.856;151.182;2024-03-02T12:57:07;19.08;;;4.70;;
20802;SDS011;10562;-33.856;151.182;2024-03-02T12:59:38;17.08;;;4.20;;
20802;SDS011;10562;-33.856;151.182;2024-03-02T13:02:19;15.02;;;4.25;;
20802;SDS011;10562;-33.856;151.182;2024-03-02T13:04:52;18.40;;;4.50;;
20802;SDS011;10562;-33.856;151.182;2024-03-02T13:07:24;13.25;;;4.68;;
20802;SDS011;10562;-33.856;151.182;2024-03-02T13:09:56;18.65;;;8.65;;
20802;SDS011;10562;-33.856;151.182;2024-03-02T13:12:27;17.35;;;4.72;;
20802;SDS011;10562;-33.856;151.182;2024-03-02T13:14:59;16.33;;;5.00;;
20802;SDS011;10562;-33.856;151.182;2024-03-02T13:17:33;14.75;;;4.75;;
20802;SDS011;10562;-33.856;151.182;2024-03-02T13:20:04;21.40;;;4.65;;
20802;SDS011;10562;-33.856;151.182;2024-03-02T13:22:36;15.13;;;4.22;;
20802;SDS011;10562;-33.856;151.182;2024-03-02T13:25:07;14.55;;;4.93;;
20802;SDS011;10562;-33.856;151.182;2024-03-02T13:27:38;21.40;;;5.32;;
20802;SDS011;10562;-33.856;151.182;2024-03-02T13:30:09;17.75;;;5.25;;
20802;SDS011;10562;-33.856;151.182;2024-03-02T13:32:42;16.77;;;5.07;;
20802;SDS011;10562;-33.856;151.182;2024-03-02T13:35:13;17.85;;;4.93;;
20802;SDS011;10562;-33.856;151.182;2024-03-02T13:37:44;22.27;;;5.50;;
20802;SDS011;10562;-33.856;151.182;2024-03-02T13:40:18;15.57;;;4.95;;
20802;SDS011;10562;-33.856;151.182;2024-03-02T13:42:49;14.90;;;4.70;;
20802;SDS011;10562;-33.856;151.182;2024-03-02T13:45:22;13.88;;;5.45;;
20802;SDS011;10562;-33.856;151.182;2024-03-02T13:47:55;16.30;;;5.68;;
20802;SDS011;10562;-33.856;151.182;2024-03-02T13:50:26;23.90;;;5.90;;
20802;SDS011;10562;-33.856;151.182;2024-03-02T13:53:00;18.23;;;5.03;;
20802;SDS011;10562;-33.856;151.182;2024-03-02T13:55:31;18.05;;;7.05;;
20802;SDS011;10562;-33.856;151.182;2024-03-02T13:58:01;12.82;;;5.97;;
20802;SDS011;10562;-33.856;151.182;2024-03-02T14:00:32;17.45;;;6.68;;
20802;SDS011;10562;-33.856;151.182;2024-03-02T14:03:05;16.25;;;6.63;;
20802;SDS011;10562;-33.856;151.182;2024-03-02T14:05:36;15.13;;;7.28;;
20802;SDS011;10562;-33.856;151.182;2024-03-02T14:08:07;13.02;;;6.50;;
20802;SDS011;10562;-33.856;151.182;2024-03-02T14:10:37;14.75;;;7.22;;
20802;SDS011;10562;-33.856;151.182;2024-03-02T14:13:08;13.45;;;7.43;;
20802;SDS011;10562;-33.856;151.182;2024-03-02T14:15:39;17.70;;;8.07;;
20802;SDS011;10562;-33.856;151.182;2024-03-02T14:18:12;16.77;;;7.60;;
20802;SDS011;10562;-33.856;151.182;2024-03-02T14:20:43;22.60;;;8.25;;
20802;SDS011;10562;-33.856;151.182;2024-03-02T14:23:18;20.23;;;7.53;;
20802;SDS011;10562;-33.856;151.182;2024-03-02T14:25:49;14.50;;;6.22;;
20802;SDS011;10562;-33.856;151.182;2024-03-02T14:28:19;15.88;;;7.13;;
20802;SDS011;10562;-33.856;151.182;2024-03-02T14:30:50;21.70;;;7.18;;